Angelina County Airport Lufkin US
ICAO: KLFK
IATA: LFK
Category: Medium
Scheduled Services: No

Elevation: 296 ft
TransAlt. 18000 ft.

Airport Communications:
ASOS:120.625
HOUSTON CNTR:134.8
MONTGOMERY CO RDO:122.2
CTAF/UNICOM:123

KLFK Zoom In..

If you have problems with the map follow the link
https://www.worldairports.se/pages/airport.php?
ICAO=KLFK

Runways:

(A) RW 07 length 5400 ft width 100 ft
ILS 111.30 / hdg 70

(B) RW 15 length 4311 ft width 100 ft
---- / hdg 155

(C) RW 25 length 5400 ft width 100 ft
---- / hdg 250

(D) RW 33 length 4311 ft width 100 ft
---- / hdg 335

Location; KLFK
Day. 21 / Time. 17.53 Zulu
* Altimeter: 30.29
* Temperature: 19° c. 66.2°f.
* Wind from: 080° Speed 09 kn.
Dewpoint: 07° c.
Visibility: 10 Statute Miles.
Clouds: Clear (automated report).

KLFK 211753Z AUTO 08009KT 10SM CLR 19/07 A3029 RMK AO2 SLP256 T01890067 10194 20106 56009


Wind From 080°
Speed 09 kn.

 
 
jpsmedia.com for Web Design worldairports.se 2018   terms of use